Time;durP1;ratioP1;P1;durP2;ratioP2;P2;SDS_P1;SDS_P2;PMS_P1;PMS_P2;Temp;Humidity;BMP_temperature;BMP_pressure;BME280_temperature;BME280_humidity;BME280_pressure;Samples;Min_cycle;Max_cycle;Signal;HPM_P1;HPM_P2
2024/01/03 00:00:53;;;;;;;;;;;;;;;27.73;20.98;96268.78;5040425;28;20011;-85
2024/01/03 00:03:20;;;;;;;;;;;;;;;27.38;21.27;96279.53;5041974;28;20000;-85
2024/01/03 00:05:46;;;;;;;;;;;;;;;27.56;20.91;96267.91;5041939;28;20011;-85
2024/01/03 00:08:23;;;;;;;;;;;;;;;27.45;21.17;96267.81;5025499;28;20354;-84
2024/01/03 00:10:51;;;;;;;;;;;;;;;27.52;21.11;96266.56;5042974;28;19923;-84
2024/01/03 00:13:26;;;;;;;;;;;;;;;27.30;21.39;96265.13;5044651;28;19936;-84
2024/01/03 00:16:01;;;;;;;;;;;;;;;27.07;21.42;96260.53;5044239;28;19939;-84
2024/01/03 00:18:32;;;;;;;;;;;;;;;27.15;21.33;96258.03;5042117;28;20422;-83
2024/01/03 00:20:58;;;;;;;;;;;;;;;27.31;21.32;96260.22;5041098;28;19924;-84
2024/01/03 00:23:32;;;;;;;;;;;;;;;27.52;20.85;96250.44;5043260;28;19921;-84
2024/01/03 00:25:58;;;;;;;;;;;;;;;27.45;21.35;96242.44;5045078;28;19921;-84
2024/01/03 00:28:24;;;;;;;;;;;;;;;27.66;20.81;96241.06;5044307;28;19936;-84
2024/01/03 00:30:50;;;;;;;;;;;;;;;27.74;21.12;96241.38;5042291;28;19921;-83
2024/01/03 00:33:17;;;;;;;;;;;;;;;27.46;21.32;96238.38;5045800;28;20034;-84
2024/01/03 00:35:43;;;;;;;;;;;;;;;27.55;20.98;96235.34;5042411;28;19963;-84
2024/01/03 00:38:09;;;;;;;;;;;;;;;27.33;21.34;96235.91;5040896;28;20368;-84
2024/01/03 00:40:53;;;;;;;;;;;;;;;27.13;21.75;96232.41;5046213;28;19935;-83
2024/01/03 00:43:19;;;;;;;;;;;;;;;27.31;21.34;96234.88;5047204;28;19924;-84
2024/01/03 00:45:47;;;;;;;;;;;;;;;27.27;21.55;96231.50;5046743;28;19921;-84
2024/01/03 00:48:13;;;;;;;;;;;;;;;27.40;21.13;96223.44;5041370;28;19967;-84
2024/01/03 00:50:39;;;;;;;;;;;;;;;27.47;21.31;96227.88;5046364;28;20369;-84
2024/01/03 00:53:05;;;;;;;;;;;;;;;27.42;21.48;96220.13;5044618;28;19921;-83
2024/01/03 00:55:31;;;;;;;;;;;;;;;27.33;21.53;96218.22;5043439;28;19931;-83
2024/01/03 00:57:57;;;;;;;;;;;;;;;27.32;21.40;96220.28;5043669;28;20016;-83
2024/01/03 01:00:23;;;;;;;;;;;;;;;27.53;21.19;96208.94;5046397;28;20058;-84
2024/01/03 01:02:49;;;;;;;;;;;;;;;27.48;21.24;96212.47;5047279;28;19936;-84
2024/01/03 01:05:15;;;;;;;;;;;;;;;27.35;21.54;96204.44;5027906;28;19925;-83
2024/01/03 01:07:41;;;;;;;;;;;;;;;27.74;21.33;96216.78;5049655;28;20046;-83
2024/01/03 01:10:07;;;;;;;;;;;;;;;27.93;21.04;96200.22;5051057;28;20022;-84
2024/01/03 01:12:34;;;;;;;;;;;;;;;27.98;20.87;96197.41;5048636;28;19947;-84
2024/01/03 01:15:01;;;;;;;;;;;;;;;28.12;20.47;96201.34;5045983;28;19925;-84
2024/01/03 01:17:27;;;;;;;;;;;;;;;28.24;20.68;96183.16;5045072;28;20377;-84
2024/01/03 01:19:53;;;;;;;;;;;;;;;28.20;20.69;96184.69;5042853;28;19929;-84
2024/01/03 01:22:19;;;;;;;;;;;;;;;28.18;20.67;96178.78;5027062;28;20308;-84
2024/01/03 01:24:45;;;;;;;;;;;;;;;28.17;20.52;96175.19;5045459;28;20270;-83
2024/01/03 01:27:11;;;;;;;;;;;;;;;28.03;20.83;96171.28;5027782;28;19927;-84
2024/01/03 01:29:37;;;;;;;;;;;;;;;27.68;21.16;96162.38;5046011;28;19928;-84
2024/01/03 01:32:03;;;;;;;;;;;;;;;27.55;21.42;96161.28;5045503;28;20274;-84
2024/01/03 01:34:29;;;;;;;;;;;;;;;27.72;21.24;96160.09;5046435;28;20011;-83
2024/01/03 01:36:55;;;;;;;;;;;;;;;27.80;21.05;96149.88;5044116;28;19953;-84
2024/01/03 01:39:21;;;;;;;;;;;;;;;27.58;21.53;96141.31;5044807;28;19929;-84
2024/01/03 01:41:47;;;;;;;;;;;;;;;27.61;21.31;96143.09;5042892;28;19967;-84
2024/01/03 01:44:13;;;;;;;;;;;;;;;27.29;21.58;96148.03;5045706;28;20320;-84
2024/01/03 01:46:40;;;;;;;;;;;;;;;27.21;21.61;96137.72;5042328;28;19921;-84
2024/01/03 01:49:07;;;;;;;;;;;;;;;27.16;21.62;96136.41;5045877;28;20445;-84
2024/01/03 01:51:34;;;;;;;;;;;;;;;27.10;21.99;96127.13;5040734;28;20414;-84
2024/01/03 01:54:01;;;;;;;;;;;;;;;27.35;21.74;96129.09;5043282;28;19928;-83
2024/01/03 01:56:27;;;;;;;;;;;;;;;27.61;21.35;96123.38;5042407;28;19933;-83
2024/01/03 01:58:54;;;;;;;;;;;;;;;27.66;21.64;96119.81;5042250;28;20078;-84
2024/01/03 02:01:21;;;;;;;;;;;;;;;27.74;21.51;96106.00;5046392;28;20304;-84
2024/01/03 02:03:48;;;;;;;;;;;;;;;27.95;21.43;96105.34;5043335;28;19945;-83
2024/01/03 02:06:15;;;;;;;;;;;;;;;28.14;21.04;96108.50;5043426;28;19921;-84
2024/01/03 02:08:41;;;;;;;;;;;;;;;27.92;21.24;96099.91;5044816;28;20276;-84
2024/01/03 02:11:07;;;;;;;;;;;;;;;28.04;21.32;96101.53;5045118;28;19924;-84
2024/01/03 02:13:33;;;;;;;;;;;;;;;27.79;21.33;96088.34;5041338;28;19950;-84
2024/01/03 02:15:59;;;;;;;;;;;;;;;27.83;21.48;96095.28;5044276;28;19920;-84
2024/01/03 02:18:27;;;;;;;;;;;;;;;27.65;21.71;96086.50;5042704;28;19924;-84
2024/01/03 02:20:56;;;;;;;;;;;;;;;27.47;21.95;96087.66;5044865;28;19932;-84
2024/01/03 02:23:23;;;;;;;;;;;;;;;27.56;21.86;96087.47;5041533;28;19931;-84
2024/01/03 02:25:48;;;;;;;;;;;;;;;27.62;21.79;96085.44;5043845;28;20047;-84
2024/01/03 02:28:16;;;;;;;;;;;;;;;27.52;21.96;96095.38;5045728;28;20027;-84
2024/01/03 02:30:44;;;;;;;;;;;;;;;27.73;21.57;96093.94;5042439;28;19935;-84
2024/01/03 02:33:11;;;;;;;;;;;;;;;28.10;21.32;96082.56;5045574;28;19927;-84
2024/01/03 02:35:37;;;;;;;;;;;;;;;28.13;21.40;96086.41;5045760;28;19986;-84
2024/01/03 02:38:03;;;;;;;;;;;;;;;27.93;21.40;96079.69;5044561;28;19916;-83
2024/01/03 02:40:29;;;;;;;;;;;;;;;28.05;21.25;96074.88;5045071;28;20056;-83
2024/01/03 02:42:55;;;;;;;;;;;;;;;27.01;22.28;96079.44;5044585;28;20448;-83
2024/01/03 02:45:21;;;;;;;;;;;;;;;27.03;22.19;96071.25;5045676;28;19928;-83
2024/01/03 02:47:47;;;;;;;;;;;;;;;27.10;22.16;96070.00;5047304;28;20304;-83
2024/01/03 02:50:13;;;;;;;;;;;;;;;27.47;21.91;96062.31;5029254;28;20009;-83
2024/01/03 02:52:39;;;;;;;;;;;;;;;27.64;21.95;96059.56;5042981;28;19929;-83
2024/01/03 02:55:05;;;;;;;;;;;;;;;27.73;21.79;96064.97;5042533;28;19986;-83
2024/01/03 02:57:31;;;;;;;;;;;;;;;27.27;22.21;96059.63;5042293;28;19920;-83
2024/01/03 02:59:57;;;;;;;;;;;;;;;27.10;22.24;96059.53;5043062;28;20335;-83
2024/01/03 03:02:23;;;;;;;;;;;;;;;26.89;22.60;96060.13;5043826;28;19924;-83
2024/01/03 03:04:49;;;;;;;;;;;;;;;26.77;22.96;96058.53;5041382;28;19979;-83
2024/01/03 03:07:15;;;;;;;;;;;;;;;26.79;22.78;96058.81;5041986;28;19999;-83
2024/01/03 03:09:41;;;;;;;;;;;;;;;26.54;23.08;96068.81;5024405;28;19929;-83
2024/01/03 03:12:07;;;;;;;;;;;;;;;25.50;24.54;96055.16;5045834;28;19964;-83
2024/01/03 03:14:33;;;;;;;;;;;;;;;25.67;24.41;96056.88;5045057;28;19920;-83
2024/01/03 03:16:59;;;;;;;;;;;;;;;26.07;24.21;96047.63;5046448;28;19920;-84
2024/01/03 03:19:25;;;;;;;;;;;;;;;25.65;24.50;96044.63;5029346;28;19996;-83
2024/01/03 03:21:51;;;;;;;;;;;;;;;26.03;24.07;96041.44;5043945;28;19982;-83
2024/01/03 03:24:17;;;;;;;;;;;;;;;25.86;24.23;96038.47;5047032;28;19925;-84
2024/01/03 03:26:43;;;;;;;;;;;;;;;25.65;24.68;96033.38;5029169;28;19920;-84
2024/01/03 03:29:09;;;;;;;;;;;;;;;25.95;24.37;96024.22;5046372;28;19921;-84
2024/01/03 03:31:35;;;;;;;;;;;;;;;26.21;23.91;96021.44;5046266;28;19971;-84
2024/01/03 03:34:01;;;;;;;;;;;;;;;25.76;24.55;96025.84;5028121;28;20020;-83
2024/01/03 03:36:27;;;;;;;;;;;;;;;26.43;23.77;96029.31;5046774;28;19923;-84
2024/01/03 03:38:54;;;;;;;;;;;;;;;25.54;24.74;96022.78;5043293;28;20351;-83
2024/01/03 03:41:21;;;;;;;;;;;;;;;25.80;24.21;96022.81;5046913;28;19927;-83
2024/01/03 03:43:47;;;;;;;;;;;;;;;26.46;23.52;96031.13;5045869;28;20074;-83
2024/01/03 03:46:17;;;;;;;;;;;;;;;26.42;23.86;96020.09;5045977;28;20007;-82
2024/01/03 03:48:43;;;;;;;;;;;;;;;26.43;23.60;96018.84;5046102;28;19929;-83
2024/01/03 03:51:09;;;;;;;;;;;;;;;26.22;23.91;96023.00;5045590;28;19925;-82
2024/01/03 03:53:38;;;;;;;;;;;;;;;26.58;23.46;96025.06;5044045;28;20402;-83
2024/01/03 03:56:04;;;;;;;;;;;;;;;26.46;23.67;96015.03;5041572;28;20017;-83
2024/01/03 03:58:30;;;;;;;;;;;;;;;26.69;23.39;96021.59;5042098;28;20004;-83
2024/01/03 04:00:56;;;;;;;;;;;;;;;25.78;24.41;96017.69;5041427;28;20071;-83
2024/01/03 04:03:22;;;;;;;;;;;;;;;25.31;25.32;96007.66;5044397;28;19925;-83
2024/01/03 04:05:48;;;;;;;;;;;;;;;25.83;24.40;96004.94;5038466;28;19941;-83
2024/01/03 04:08:14;;;;;;;;;;;;;;;26.06;24.24;96017.97;5046061;28;20372;-83
2024/01/03 04:10:40;;;;;;;;;;;;;;;25.68;24.76;96019.09;5046881;28;20296;-83
2024/01/03 04:13:06;;;;;;;;;;;;;;;25.62;24.96;96020.31;5047183;28;19925;-83
2024/01/03 04:15:32;;;;;;;;;;;;;;;26.37;23.86;96025.69;5046410;28;19966;-84
2024/01/03 04:17:58;;;;;;;;;;;;;;;26.42;23.54;96022.91;5045217;28;19920;-84
2024/01/03 04:20:24;;;;;;;;;;;;;;;25.83;24.32;96014.16;5042927;28;19932;-84
2024/01/03 04:22:50;;;;;;;;;;;;;;;25.65;24.86;96025.69;5037635;28;19921;-84
2024/01/03 04:25:17;;;;;;;;;;;;;;;26.33;23.87;96020.28;5045268;28;19925;-84
2024/01/03 04:27:43;;;;;;;;;;;;;;;26.88;23.57;96019.19;5040045;28;19996;-84
2024/01/03 04:30:09;;;;;;;;;;;;;;;25.71;24.74;96009.69;5041649;28;19921;-84
2024/01/03 04:32:35;;;;;;;;;;;;;;;25.67;24.69;96016.78;5043745;28;19999;-84
2024/01/03 04:35:01;;;;;;;;;;;;;;;25.55;25.24;96027.13;5041958;28;20393;-83
2024/01/03 04:37:28;;;;;;;;;;;;;;;25.62;24.93;96020.31;5039505;28;20011;-83
2024/01/03 04:39:54;;;;;;;;;;;;;;;25.47;25.26;96025.22;5042595;28;19928;-83
2024/01/03 04:42:20;;;;;;;;;;;;;;;25.97;24.42;96029.38;5043306;28;20323;-83
2024/01/03 04:44:46;;;;;;;;;;;;;;;26.02;24.49;96037.09;5040562;28;19931;-83
2024/01/03 04:47:12;;;;;;;;;;;;;;;25.26;25.74;96035.66;5039633;28;20384;-83
2024/01/03 04:49:38;;;;;;;;;;;;;;;25.56;25.08;96033.50;5047422;28;19921;-83
2024/01/03 04:52:04;;;;;;;;;;;;;;;25.28;25.68;96033.91;5043185;28;19955;-83
2024/01/03 04:54:30;;;;;;;;;;;;;;;25.21;25.87;96041.97;5043610;28;19931;-83
2024/01/03 04:56:56;;;;;;;;;;;;;;;25.72;25.46;96044.94;5023452;28;19929;-83
2024/01/03 04:59:22;;;;;;;;;;;;;;;24.48;27.03;96056.19;5043420;28;19928;-82
2024/01/03 05:01:48;;;;;;;;;;;;;;;25.79;25.28;96052.19;5041473;28;20331;-82
2024/01/03 05:04:14;;;;;;;;;;;;;;;25.85;25.60;96050.22;5043426;28;19925;-82
2024/01/03 05:06:40;;;;;;;;;;;;;;;25.70;25.69;96055.13;5046679;28;19935;-82
2024/01/03 05:09:06;;;;;;;;;;;;;;;26.04;25.58;96057.06;5040857;28;19935;-82
2024/01/03 05:11:32;;;;;;;;;;;;;;;26.17;25.33;96063.09;5043423;28;20377;-82
2024/01/03 05:13:58;;;;;;;;;;;;;;;26.77;24.71;96067.72;5041669;28;19986;-82
2024/01/03 05:16:24;;;;;;;;;;;;;;;26.92;24.78;96053.50;5044491;28;19932;-83
2024/01/03 05:18:50;;;;;;;;;;;;;;;27.12;24.50;96056.22;5026886;28;20015;-83
2024/01/03 05:21:16;;;;;;;;;;;;;;;26.84;24.92;96055.25;5042346;28;19929;-83
2024/01/03 05:23:42;;;;;;;;;;;;;;;26.71;25.18;96062.03;5043055;28;19917;-82
2024/01/03 05:26:08;;;;;;;;;;;;;;;27.23;24.36;96051.41;5042430;28;19986;-82
2024/01/03 05:28:34;;;;;;;;;;;;;;;27.06;24.70;96044.91;5045747;28;19921;-83
2024/01/03 05:31:00;;;;;;;;;;;;;;;27.10;24.54;96059.53;5045638;28;19925;-83
2024/01/03 05:33:26;;;;;;;;;;;;;;;27.10;24.54;96053.09;5045636;28;19928;-83
2024/01/03 05:35:52;;;;;;;;;;;;;;;26.93;24.97;96063.50;5042694;28;19927;-83
2024/01/03 05:38:18;;;;;;;;;;;;;;;26.36;25.77;96060.72;5047081;28;19920;-82
2024/01/03 05:40:44;;;;;;;;;;;;;;;26.95;24.83;96058.16;5043860;28;20277;-82
2024/01/03 05:43:14;;;;;;;;;;;;;;;27.58;24.02;96056.75;5045510;28;19975;-82
2024/01/03 05:45:40;;;;;;;;;;;;;;;27.53;24.07;96063.13;5041819;28;19928;-81
2024/01/03 05:48:06;;;;;;;;;;;;;;;27.17;24.38;96061.88;5044927;28;19928;-82
2024/01/03 05:50:32;;;;;;;;;;;;;;;27.23;24.53;96065.50;5043603;28;19921;-82
2024/01/03 05:52:58;;;;;;;;;;;;;;;27.43;24.30;96064.59;5043573;28;19921;-82
2024/01/03 05:55:24;;;;;;;;;;;;;;;27.74;23.70;96061.66;5040688;28;19932;-82
2024/01/03 05:57:50;;;;;;;;;;;;;;;27.99;23.76;96062.78;5045823;28;19929;-83
2024/01/03 06:00:16;;;;;;;;;;;;;;;27.98;23.51;96064.81;5040043;28;19951;-83
2024/01/03 06:02:42;;;;;;;;;;;;;;;27.80;23.92;96065.25;5041530;28;20343;-83
2024/01/03 06:05:10;;;;;;;;;;;;;;;27.84;23.79;96067.84;5042863;28;19929;-83
2024/01/03 06:07:36;;;;;;;;;;;;;;;27.83;23.90;96067.06;5044237;28;19925;-83
2024/01/03 06:10:03;;;;;;;;;;;;;;;27.65;24.08;96072.38;5043486;28;19921;-83
2024/01/03 06:12:29;;;;;;;;;;;;;;;27.93;23.94;96073.25;5047634;28;19947;-83
2024/01/03 06:14:55;;;;;;;;;;;;;;;28.02;23.79;96076.66;5045689;28;19925;-84
2024/01/03 06:17:21;;;;;;;;;;;;;;;28.32;23.53;96074.16;5046656;28;19935;-84
2024/01/03 06:19:47;;;;;;;;;;;;;;;28.48;22.90;96075.44;5046620;28;19964;-83
2024/01/03 06:22:14;;;;;;;;;;;;;;;28.18;23.68;96082.84;5045079;28;19920;-84
2024/01/03 06:24:40;;;;;;;;;;;;;;;28.26;23.58;96083.91;5047152;28;20349;-85
2024/01/03 06:27:06;;;;;;;;;;;;;;;28.43;23.21;96076.97;5048055;28;19931;-85
2024/01/03 06:29:32;;;;;;;;;;;;;;;28.44;23.20;96086.22;5048016;28;19921;-84
2024/01/03 06:31:58;;;;;;;;;;;;;;;28.16;23.55;96083.38;5047474;28;20030;-85
2024/01/03 06:34:24;;;;;;;;;;;;;;;28.31;23.46;96094.44;5029450;28;20373;-85
2024/01/03 06:36:50;;;;;;;;;;;;;;;28.30;23.52;96095.69;5047537;28;19928;-84
2024/01/03 06:39:16;;;;;;;;;;;;;;;28.41;23.43;96093.66;5047905;28;20015;-85
2024/01/03 06:41:42;;;;;;;;;;;;;;;28.04;23.91;96102.31;5029490;28;19979;-84
2024/01/03 06:44:08;;;;;;;;;;;;;;;28.16;24.02;96108.75;5046868;28;19927;-85
2024/01/03 06:46:34;;;;;;;;;;;;;;;28.16;23.97;96105.94;5045702;28;19925;-85
2024/01/03 06:49:00;;;;;;;;;;;;;;;28.25;23.90;96102.09;5044801;28;20403;-85
2024/01/03 06:51:26;;;;;;;;;;;;;;;28.12;24.16;96108.25;5046763;28;19971;-84
2024/01/03 06:53:52;;;;;;;;;;;;;;;27.47;24.78;96106.66;5047542;28;19921;-85
2024/01/03 06:56:19;;;;;;;;;;;;;;;27.48;24.90;96108.97;5047687;28;19917;-84
2024/01/03 06:58:45;;;;;;;;;;;;;;;27.34;25.24;96113.47;5046872;28;19963;-84
2024/01/03 07:01:11;;;;;;;;;;;;;;;27.16;25.41;96115.91;5030343;28;20349;-84
2024/01/03 07:03:37;;;;;;;;;;;;;;;27.56;25.14;96118.50;5045128;28;19959;-84
2024/01/03 07:06:03;;;;;;;;;;;;;;;27.93;24.55;96122.00;5046640;28;19956;-84
2024/01/03 07:08:29;;;;;;;;;;;;;;;27.85;24.47;96123.75;5046004;28;19929;-85
2024/01/03 07:10:55;;;;;;;;;;;;;;;27.30;25.20;96123.44;5047295;28;20394;-85
2024/01/03 07:13:21;;;;;;;;;;;;;;;27.12;25.63;96129.47;5047074;28;19927;-85
2024/01/03 07:15:47;;;;;;;;;;;;;;;26.06;26.75;96116.41;5045934;28;20005;-84
2024/01/03 07:18:13;;;;;;;;;;;;;;;26.42;26.56;96131.91;5046591;28;19927;-84
2024/01/03 07:20:39;;;;;;;;;;;;;;;26.00;27.06;96123.97;5045650;28;19925;-85
2024/01/03 07:23:05;;;;;;;;;;;;;;;26.71;26.13;96129.63;5047827;28;19990;-85
2024/01/03 07:25:31;;;;;;;;;;;;;;;27.16;25.26;96130.00;5046482;28;20034;-84
2024/01/03 07:27:57;;;;;;;;;;;;;;;26.17;27.04;96139.03;5046539;28;20015;-85
2024/01/03 07:30:25;;;;;;;;;;;;;;;25.99;27.29;96122.44;5045922;28;20380;-85
2024/01/03 07:32:56;;;;;;;;;;;;;;;26.95;26.14;96126.53;5047593;28;19925;-85
2024/01/03 07:35:23;;;;;;;;;;;;;;;26.72;26.16;96133.22;5045878;28;20028;-84
2024/01/03 07:37:49;;;;;;;;;;;;;;;27.57;25.16;96122.84;5046747;28;19932;-84
2024/01/03 07:40:15;;;;;;;;;;;;;;;28.12;24.55;96132.84;5044449;28;20404;-84
2024/01/03 07:42:41;;;;;;;;;;;;;;;28.53;24.06;96120.63;5044740;28;19921;-84
2024/01/03 07:45:07;;;;;;;;;;;;;;;28.67;23.49;96125.31;5044015;28;19924;-84
2024/01/03 07:47:33;;;;;;;;;;;;;;;28.69;23.69;96134.03;5045697;28;20324;-84
2024/01/03 07:50:00;;;;;;;;;;;;;;;28.54;23.82;96130.63;5044922;28;20039;-84
2024/01/03 07:52:26;;;;;;;;;;;;;;;28.63;23.93;96130.44;5045073;28;19921;-84
2024/01/03 07:54:52;;;;;;;;;;;;;;;28.18;24.17;96137.25;5046762;28;19927;-84
2024/01/03 07:57:19;;;;;;;;;;;;;;;28.30;24.17;96141.63;5044687;28;19925;-84
2024/01/03 07:59:45;;;;;;;;;;;;;;;28.32;24.20;96144.72;5046996;28;20396;-84
2024/01/03 08:02:12;;;;;;;;;;;;;;;27.66;24.97;96141.59;5045073;28;19921;-84
2024/01/03 08:04:38;;;;;;;;;;;;;;;27.24;25.71;96148.75;5046176;28;19924;-84
2024/01/03 08:07:04;;;;;;;;;;;;;;;28.05;24.83;96146.16;5046751;28;19944;-85
2024/01/03 08:09:30;;;;;;;;;;;;;;;28.30;24.37;96141.63;5046840;28;20373;-84
2024/01/03 08:11:56;;;;;;;;;;;;;;;28.17;24.62;96152.63;5045499;28;20347;-84
2024/01/03 08:14:23;;;;;;;;;;;;;;;27.58;25.14;96157.44;5044564;28;19920;-84
2024/01/03 08:16:49;;;;;;;;;;;;;;;27.91;24.92;96154.81;5045108;28;19927;-84
2024/01/03 08:19:15;;;;;;;;;;;;;;;27.90;24.87;96148.38;5045651;28;19921;-84
2024/01/03 08:21:41;;;;;;;;;;;;;;;27.56;25.55;96149.50;5046366;28;19928;-85
2024/01/03 08:24:07;;;;;;;;;;;;;;;27.75;25.50;96153.44;5044562;28;19920;-84
2024/01/03 08:26:33;;;;;;;;;;;;;;;28.02;24.87;96154.88;5046140;28;19920;-84
2024/01/03 08:28:59;;;;;;;;;;;;;;;28.21;24.93;96152.38;5046118;28;20686;-84
2024/01/03 08:31:25;;;;;;;;;;;;;;;27.95;25.08;96158.16;5046192;28;19936;-84
2024/01/03 08:33:51;;;;;;;;;;;;;;;28.09;24.81;96154.41;5043579;28;20388;-84
2024/01/03 08:36:17;;;;;;;;;;;;;;;28.19;24.78;96166.22;5046070;28;19921;-84
2024/01/03 08:38:43;;;;;;;;;;;;;;;28.23;24.84;96170.34;5045229;28;19928;-85
2024/01/03 08:41:13;;;;;;;;;;;;;;;28.52;24.36;96161.44;5046180;28;20430;-85
2024/01/03 08:43:39;;;;;;;;;;;;;;;28.61;24.25;96172.53;5044904;28;20007;-85
2024/01/03 08:46:05;;;;;;;;;;;;;;;28.34;24.51;96167.56;5028948;28;20463;-85
2024/01/03 08:48:31;;;;;;;;;;;;;;;28.39;24.49;96171.69;5045606;28;19974;-85
2024/01/03 08:50:57;;;;;;;;;;;;;;;27.65;25.39;96183.13;5044837;28;19925;-85
2024/01/03 08:53:23;;;;;;;;;;;;;;;27.92;25.57;96178.91;5045837;28;20403;-85
2024/01/03 08:55:49;;;;;;;;;;;;;;;28.14;25.34;96183.91;5043365;28;19967;-85
2024/01/03 08:58:16;;;;;;;;;;;;;;;27.91;25.41;96183.78;5045849;28;19921;-85
2024/01/03 09:00:44;;;;;;;;;;;;;;;27.68;26.05;96189.81;5047451;28;19967;-85
2024/01/03 09:03:10;;;;;;;;;;;;;;;28.08;25.70;96181.06;5049626;28;20377;-85
2024/01/03 09:05:37;;;;;;;;;;;;;;;27.88;25.83;96181.97;5048370;28;20557;-85
2024/01/03 09:08:03;;;;;;;;;;;;;;;28.54;25.02;96186.34;5048715;28;19924;-85
2024/01/03 09:10:29;;;;;;;;;;;;;;;28.56;24.94;96189.44;5049714;28;20037;-85
2024/01/03 09:12:55;;;;;;;;;;;;;;;28.14;25.39;96187.50;5048049;28;20003;-85
2024/01/03 09:15:21;;;;;;;;;;;;;;;28.07;25.49;96190.81;5051153;28;20011;-85
2024/01/03 09:17:47;;;;;;;;;;;;;;;27.39;26.23;96185.28;5047847;28;20007;-85
2024/01/03 09:20:15;;;;;;;;;;;;;;;27.73;26.28;96189.06;5049269;28;19967;-85
2024/01/03 09:22:41;;;;;;;;;;;;;;;28.31;25.67;96184.75;5030843;28;20007;-85
2024/01/03 09:25:07;;;;;;;;;;;;;;;27.89;25.64;96182.75;5048705;28;19929;-85
2024/01/03 09:27:33;;;;;;;;;;;;;;;27.36;26.03;96177.78;5047969;28;19933;-85
2024/01/03 09:29:59;;;;;;;;;;;;;;;27.69;26.20;96175.22;5049401;28;20368;-85
2024/01/03 09:32:25;;;;;;;;;;;;;;;27.34;26.73;96186.75;5049455;28;19967;-85
2024/01/03 09:34:51;;;;;;;;;;;;;;;27.85;25.45;96185.81;5049363;28;19925;-85
2024/01/03 09:37:17;;;;;;;;;;;;;;;27.75;25.83;96186.53;5047878;28;19974;-85
2024/01/03 09:39:43;;;;;;;;;;;;;;;28.61;25.05;96186.63;5048555;28;19935;-84
2024/01/03 09:42:09;;;;;;;;;;;;;;;27.90;25.38;96193.53;5048477;28;20438;-85
2024/01/03 09:44:36;;;;;;;;;;;;;;;28.57;24.66;96188.16;5048926;28;20369;-85
2024/01/03 09:47:02;;;;;;;;;;;;;;;29.08;24.53;96198.28;5048793;28;19986;-84
2024/01/03 09:49:28;;;;;;;;;;;;;;;29.14;24.83;96191.34;5047765;28;19995;-84
2024/01/03 09:51:55;;;;;;;;;;;;;;;28.82;25.10;96189.25;5047672;28;19924;-84
2024/01/03 09:54:21;;;;;;;;;;;;;;;28.73;24.82;96184.59;5048411;28;19936;-85
2024/01/03 09:56:51;;;;;;;;;;;;;;;28.80;24.64;96189.00;5048786;28;19981;-85
2024/01/03 09:59:18;;;;;;;;;;;;;;;28.00;24.94;96194.13;5046909;28;19929;-85
2024/01/03 10:01:54;;;;;;;;;;;;;;;27.23;25.94;96199.97;5048146;28;20407;-85
2024/01/03 10:04:20;;;;;;;;;;;;;;;27.98;25.20;96188.19;5046932;28;19932;-85
2024/01/03 10:06:50;;;;;;;;;;;;;;;28.43;25.30;96191.94;5048860;28;19925;-85
2024/01/03 10:09:17;;;;;;;;;;;;;;;28.82;24.74;96198.53;5047135;28;19972;-85
2024/01/03 10:11:43;;;;;;;;;;;;;;;28.98;24.21;96194.16;5047031;28;19924;-85
2024/01/03 10:14:19;;;;;;;;;;;;;;;28.63;23.96;96177.69;5046299;28;19975;-85
2024/01/03 10:16:45;;;;;;;;;;;;;;;27.69;25.07;96189.31;5047018;28;19917;-85
2024/01/03 10:19:12;;;;;;;;;;;;;;;27.73;25.10;96198.28;5047488;28;19921;-85
2024/01/03 10:21:45;;;;;;;;;;;;;;;28.29;25.01;96193.72;5048522;28;19917;-85
2024/01/03 10:24:11;;;;;;;;;;;;;;;29.06;23.94;96192.34;5029827;28;19921;-85
2024/01/03 10:26:37;;;;;;;;;;;;;;;29.06;23.62;96195.19;5048283;28;19968;-85
2024/01/03 10:29:09;;;;;;;;;;;;;;;28.55;24.44;96196.34;5047355;28;19929;-86
2024/01/03 10:31:35;;;;;;;;;;;;;;;26.64;25.94;96191.22;5047742;28;19932;-85
2024/01/03 10:34:02;;;;;;;;;;;;;;;25.58;27.34;96191.19;5048013;28;19925;-85
2024/01/03 10:36:29;;;;;;;;;;;;;;;25.88;27.31;96198.25;5060538;28;20023;-86
2024/01/03 10:38:58;;;;;;;;;;;;;;;25.67;26.89;96196.69;5046519;28;20343;-85
2024/01/03 10:41:24;;;;;;;;;;;;;;;25.32;27.47;96197.41;5027693;28;19929;-85
2024/01/03 10:43:51;;;;;;;;;;;;;;;24.99;27.87;96198.94;5047747;28;19921;-86
2024/01/03 10:46:18;;;;;;;;;;;;;;;26.24;26.50;96194.88;5045457;28;19975;-85
2024/01/03 10:48:44;;;;;;;;;;;;;;;25.45;27.53;96205.56;5046975;28;19921;-85
2024/01/03 10:51:12;;;;;;;;;;;;;;;25.36;27.47;96202.84;5047310;28;20284;-85
2024/01/03 10:53:42;;;;;;;;;;;;;;;23.88;28.87;96183.53;5045937;28;19956;-86
2024/01/03 10:56:09;;;;;;;;;;;;;;;25.14;26.94;96213.72;5047253;28;20442;-85
2024/01/03 10:58:37;;;;;;;;;;;;;;;25.45;27.35;96207.59;5045486;28;19967;-85
2024/01/03 11:01:11;;;;;;;;;;;;;;;25.90;26.30;96204.94;5045554;28;20019;-85
2024/01/03 11:03:39;;;;;;;;;;;;;;;26.35;29.13;96200.63;5045950;28;19936;-84
2024/01/03 11:06:19;;;;;;;;;;;;;;;26.12;25.74;96184.75;5045145;28;20340;-83
2024/01/03 11:08:45;;;;;;;;;;;;;;;24.30;27.71;96202.22;5046049;28;19921;-83
2024/01/03 11:11:13;;;;;;;;;;;;;;;24.39;28.80;96199.34;5047259;28;19944;-84
2024/01/03 11:13:40;;;;;;;;;;;;;;;23.88;29.13;96177.91;5045885;28;19916;-84
2024/01/03 11:16:09;;;;;;;;;;;;;;;24.38;27.91;96203.41;5045423;28;19925;-83
2024/01/03 11:18:41;;;;;;;;;;;;;;;25.43;26.66;96205.25;5046769;28;19924;-83
2024/01/03 11:21:25;;;;;;;;;;;;;;;26.61;26.52;96200.66;5045700;28;19975;-84
2024/01/03 11:23:51;;;;;;;;;;;;;;;27.16;24.66;96220.16;5044179;28;19980;-84
2024/01/03 11:26:17;;;;;;;;;;;;;;;27.42;24.52;96196.28;5045295;28;19925;-84
2024/01/03 11:28:49;;;;;;;;;;;;;;;26.89;26.52;96198.13;5046201;28;20392;-84
2024/01/03 11:31:35;;;;;;;;;;;;;;;27.20;24.61;96198.16;5045901;28;19925;-84
2024/01/03 11:34:01;;;;;;;;;;;;;;;26.11;25.53;96194.47;5046398;28;19925;-84
2024/01/03 11:36:47;;;;;;;;;;;;;;;27.35;24.50;96195.97;5046705;28;19935;-84
2024/01/03 11:39:32;;;;;;;;;;;;;;;28.56;23.59;96190.22;5045900;28;19921;-84
2024/01/03 11:41:58;;;;;;;;;;;;;;;28.20;23.57;96193.94;5047131;28;20296;-84
2024/01/03 11:44:24;;;;;;;;;;;;;;;28.32;23.84;96187.06;5044262;28;19928;-84
2024/01/03 11:47:02;;;;;;;;;;;;;;;27.31;24.27;96190.56;5046643;28;19929;-84
2024/01/03 11:49:28;;;;;;;;;;;;;;;28.39;23.42;96189.38;5046573;28;19921;-84
2024/01/03 11:51:55;;;;;;;;;;;;;;;28.49;23.09;96187.88;5043281;28;19921;-84
2024/01/03 11:54:21;;;;;;;;;;;;;;;27.62;24.48;96191.81;5044318;28;19924;-84
2024/01/03 11:56:47;;;;;;;;;;;;;;;27.73;27.11;96189.06;5045710;28;19925;-84
2024/01/03 11:59:13;;;;;;;;;;;;;;;26.93;24.56;96184.63;5046222;28;19920;-85
2024/01/03 12:01:53;;;;;;;;;;;;;;;27.52;24.14;96191.25;5044956;28;19935;-84
2024/01/03 12:04:19;;;;;;;;;;;;;;;28.26;23.89;96183.47;5045780;28;19933;-84
2024/01/03 12:06:45;;;;;;;;;;;;;;;28.97;22.80;96196.22;5044499;28;20292;-84
2024/01/03 12:09:11;;;;;;;;;;;;;;;27.78;23.56;96191.13;5046298;28;19921;-84
2024/01/03 12:11:37;;;;;;;;;;;;;;;27.85;23.80;96199.91;5044945;28;19960;-84
2024/01/03 12:14:04;;;;;;;;;;;;;;;28.71;22.94;96190.78;5045020;28;20027;-84
2024/01/03 12:16:30;;;;;;;;;;;;;;;29.02;22.39;96177.72;5045950;28;19928;-84
2024/01/03 12:18:55;;;;;;;;;;;;;;;27.69;23.89;96194.94;5045877;28;19925;-85
2024/01/03 12:21:21;;;;;;;;;;;;;;;27.63;23.79;96191.34;5045029;28;19956;-85
2024/01/03 12:24:02;;;;;;;;;;;;;;;28.64;22.97;96187.69;5045893;28;19955;-85
2024/01/03 12:26:29;;;;;;;;;;;;;;;27.59;24.04;96207.69;5045661;28;19931;-85
2024/01/03 12:29:02;;;;;;;;;;;;;;;27.40;23.88;96181.94;5046027;28;20291;-84
2024/01/03 12:31:28;;;;;;;;;;;;;;;25.11;25.82;96203.47;5045071;28;19920;-85
2024/01/03 12:34:02;;;;;;;;;;;;;;;24.80;26.91;96194.75;5045045;28;19932;-85
2024/01/03 12:36:28;;;;;;;;;;;;;;;26.80;24.44;96189.84;5049241;28;19925;-86
2024/01/03 12:38:58;;;;;;;;;;;;;;;25.74;25.38;96170.97;5041761;28;19921;-86
2024/01/03 12:41:24;;;;;;;;;;;;;;;26.04;24.91;96178.75;5050002;28;20329;-85
2024/01/03 12:43:50;;;;;;;;;;;;;;;26.99;23.52;96191.84;5048648;28;19921;-85
2024/01/03 12:46:16;;;;;;;;;;;;;;;26.62;24.14;96185.31;5049880;28;19928;-85